createdAt,value
2019-02-08T00:00:18.527Z,0.00
2019-02-08T00:02:03.967Z,0.00
2019-02-08T00:03:03.827Z,0.00
2019-02-08T00:04:56.541Z,0.00
2019-02-08T00:05:56.398Z,0.00
2019-02-08T00:07:49.043Z,0.00
2019-02-08T00:08:48.903Z,0.00
2019-02-08T00:10:41.544Z,0.00
2019-02-08T00:11:41.405Z,0.00
2019-02-08T00:13:34.049Z,0.00
2019-02-08T00:14:33.911Z,0.00
2019-02-08T00:16:41.718Z,0.00
2019-02-08T00:17:41.581Z,0.00
2019-02-08T00:19:34.234Z,0.00
2019-02-08T00:20:34.176Z,0.00
2019-02-08T00:22:26.767Z,0.00
2019-02-08T00:23:27.537Z,0.00
2019-02-08T00:25:19.264Z,0.00
2019-02-08T00:26:19.132Z,0.00
2019-02-08T00:28:11.805Z,0.00
2019-02-08T00:29:11.663Z,0.00
2019-02-08T00:31:04.314Z,0.00
2019-02-08T00:32:04.201Z,0.00
2019-02-08T00:33:56.990Z,0.00
2019-02-08T00:34:56.676Z,0.00
2019-02-08T00:36:49.322Z,0.00
2019-02-08T00:37:49.185Z,0.00
2019-02-08T00:39:41.827Z,0.00
2019-02-08T00:40:41.685Z,0.00
2019-02-08T00:42:34.333Z,0.00
2019-02-08T00:43:34.192Z,0.00
2019-02-08T00:45:26.833Z,0.00
2019-02-08T00:46:26.698Z,0.00
2019-02-08T00:48:19.373Z,0.00
2019-02-08T00:49:19.234Z,0.00
2019-02-08T00:51:11.912Z,0.00
2019-02-08T00:52:11.739Z,0.00
2019-02-08T00:54:04.378Z,0.00
2019-02-08T00:55:04.239Z,0.00
2019-02-08T00:56:56.882Z,0.00
2019-02-08T00:57:56.740Z,0.00
2019-02-08T00:59:49.382Z,0.00
2019-02-08T01:00:49.244Z,0.00
2019-02-08T01:02:41.922Z,0.00
2019-02-08T01:03:41.749Z,0.00
2019-02-08T01:05:34.389Z,0.00
2019-02-08T01:06:34.251Z,0.00
2019-02-08T01:08:26.892Z,0.00
2019-02-08T01:09:26.752Z,0.00
2019-02-08T01:11:20.248Z,0.00
2019-02-08T01:12:20.111Z,0.00
2019-02-08T01:14:12.747Z,0.00
2019-02-08T01:15:12.609Z,0.00
2019-02-08T01:17:05.255Z,0.00
2019-02-08T01:18:05.112Z,0.00
2019-02-08T01:19:57.760Z,0.00
2019-02-08T01:20:57.616Z,0.00
2019-02-08T01:22:50.261Z,0.00
2019-02-08T01:23:50.127Z,0.00
2019-02-08T01:25:42.763Z,0.00
2019-02-08T01:26:42.624Z,0.00
2019-02-08T01:28:35.267Z,0.00
2019-02-08T01:29:35.127Z,0.00
2019-02-08T01:31:27.765Z,0.00
2019-02-08T01:32:27.624Z,0.00
2019-02-08T01:34:20.263Z,0.00
2019-02-08T01:35:20.124Z,0.00
2019-02-08T01:37:27.838Z,0.00
2019-02-08T01:38:27.697Z,0.00
2019-02-08T01:40:20.355Z,0.00
2019-02-08T01:41:20.216Z,0.00
2019-02-08T01:43:12.855Z,0.00
2019-02-08T01:44:12.713Z,0.00
2019-02-08T01:46:05.355Z,0.00
2019-02-08T01:47:05.219Z,0.00
2019-02-08T01:48:57.857Z,0.00
2019-02-08T01:49:57.716Z,0.00
2019-02-08T01:51:50.358Z,0.00
2019-02-08T01:52:50.218Z,0.00
2019-02-08T01:54:42.859Z,0.00
2019-02-08T01:55:42.718Z,0.00
2019-02-08T01:57:35.365Z,0.00
2019-02-08T01:58:35.226Z,0.00
2019-02-08T02:00:27.871Z,0.00
2019-02-08T02:01:27.727Z,0.00
2019-02-08T02:03:21.212Z,0.00
2019-02-08T02:04:21.070Z,0.00
2019-02-08T02:06:13.713Z,0.00
2019-02-08T02:07:13.573Z,0.00
2019-02-08T02:09:06.214Z,0.00
2019-02-08T02:10:06.073Z,0.00
2019-02-08T02:11:59.561Z,0.00
2019-02-08T02:12:59.420Z,0.00
2019-02-08T02:14:52.063Z,0.00
2019-02-08T02:15:51.922Z,0.00
2019-02-08T02:17:44.563Z,0.00
2019-02-08T02:18:44.422Z,0.00
2019-02-08T02:20:37.968Z,0.00
2019-02-08T02:21:37.827Z,0.00
2019-02-08T02:23:30.467Z,0.00
2019-02-08T02:24:30.326Z,0.00
2019-02-08T02:26:23.013Z,0.00
2019-02-08T02:27:22.874Z,0.00
2019-02-08T02:29:15.520Z,0.00
2019-02-08T02:30:15.375Z,0.00
2019-02-08T02:32:23.090Z,0.00
2019-02-08T02:33:22.956Z,0.00
2019-02-08T02:35:15.593Z,0.00
2019-02-08T02:36:15.447Z,0.00
2019-02-08T02:38:08.122Z,0.00
2019-02-08T02:39:07.950Z,0.00
2019-02-08T02:41:00.596Z,0.00
2019-02-08T02:42:00.453Z,0.00
2019-02-08T02:43:53.980Z,0.00
2019-02-08T02:44:53.841Z,0.00
2019-02-08T02:46:46.481Z,0.00
2019-02-08T02:47:46.342Z,0.00
2019-02-08T02:49:38.983Z,0.00
2019-02-08T02:50:38.843Z,0.00
2019-02-08T02:52:31.485Z,0.00
2019-02-08T02:53:31.344Z,0.00
2019-02-08T02:55:23.984Z,0.00
2019-02-08T02:56:23.844Z,0.00
2019-02-08T02:58:16.489Z,0.00
2019-02-08T02:59:16.354Z,0.00
2019-02-08T03:01:08.993Z,0.00
2019-02-08T03:02:08.856Z,0.00
2019-02-08T03:04:01.536Z,0.00
2019-02-08T03:05:01.357Z,0.00
2019-02-08T03:06:54.001Z,0.00
2019-02-08T03:07:53.861Z,0.00
2019-02-08T03:09:46.537Z,0.00
2019-02-08T03:10:46.363Z,0.00
2019-02-08T03:12:39.002Z,0.00
2019-02-08T03:13:38.867Z,0.00
2019-02-08T03:15:32.397Z,0.00
2019-02-08T03:16:32.213Z,0.00
2019-02-08T03:18:24.853Z,0.00
2019-02-08T03:19:24.714Z,0.00
2019-02-08T03:21:17.360Z,0.00
2019-02-08T03:22:17.218Z,0.00
2019-02-08T03:24:13.037Z,0.00
2019-02-08T03:25:09.720Z,0.00
2019-02-08T03:27:02.367Z,0.00
2019-02-08T03:28:02.227Z,0.00
2019-02-08T03:29:54.867Z,0.00
2019-02-08T03:30:54.729Z,0.00
2019-02-08T03:32:47.370Z,0.00
2019-02-08T03:33:47.230Z,0.00
2019-02-08T03:35:39.876Z,0.00
2019-02-08T03:36:39.738Z,0.00
2019-02-08T03:38:33.221Z,0.00
2019-02-08T03:39:33.081Z,0.00
2019-02-08T03:41:25.723Z,0.00
2019-02-08T03:42:25.581Z,0.00
2019-02-08T03:44:18.227Z,0.00
2019-02-08T03:45:18.084Z,0.00
2019-02-08T03:47:11.579Z,0.00
2019-02-08T03:48:11.435Z,0.00
2019-02-08T03:50:04.078Z,0.00
2019-02-08T03:51:03.937Z,0.00
2019-02-08T03:52:56.586Z,0.00
2019-02-08T03:53:56.443Z,0.00
2019-02-08T03:55:56.649Z,0.00
2019-02-08T03:56:48.944Z,0.00
2019-02-08T03:58:41.589Z,0.00
2019-02-08T03:59:41.450Z,0.00
2019-02-08T04:01:34.116Z,0.00
2019-02-08T04:02:33.949Z,0.00
2019-02-08T04:04:26.592Z,0.00
2019-02-08T04:05:26.460Z,0.00
2019-02-08T04:07:19.091Z,0.00
2019-02-08T04:08:18.952Z,0.00
2019-02-08T04:10:11.592Z,0.00
2019-02-08T04:11:11.452Z,0.00
2019-02-08T04:13:04.096Z,0.00
2019-02-08T04:14:03.955Z,0.00
2019-02-08T04:15:56.592Z,0.00
2019-02-08T04:16:56.454Z,0.00
2019-02-08T04:18:49.098Z,0.00
2019-02-08T04:19:48.972Z,0.00
2019-02-08T04:21:41.604Z,0.00
2019-02-08T04:22:41.462Z,0.00
2019-02-08T04:24:34.148Z,0.00
2019-02-08T04:25:34.006Z,0.00
2019-02-08T04:27:26.664Z,0.00
2019-02-08T04:28:26.519Z,0.00
2019-02-08T04:30:19.152Z,0.00
2019-02-08T04:31:19.012Z,0.00
2019-02-08T04:33:12.504Z,0.00
2019-02-08T04:34:12.373Z,0.00
2019-02-08T04:36:05.010Z,0.00
2019-02-08T04:37:04.866Z,0.00
2019-02-08T04:38:57.516Z,0.00
2019-02-08T04:39:57.371Z,0.00
2019-02-08T04:41:50.019Z,0.00
2019-02-08T04:42:49.872Z,0.00
2019-02-08T04:44:42.516Z,0.00
2019-02-08T04:45:42.379Z,0.00
2019-02-08T04:47:35.022Z,0.00
2019-02-08T04:48:34.881Z,0.00
2019-02-08T04:50:27.526Z,0.00
2019-02-08T04:51:27.385Z,0.00
2019-02-08T04:53:20.240Z,0.00
2019-02-08T04:54:19.891Z,0.00
2019-02-08T04:56:12.530Z,0.00
2019-02-08T04:57:12.407Z,0.00
2019-02-08T04:59:05.036Z,0.00
2019-02-08T05:00:04.907Z,0.00
2019-02-08T05:01:57.539Z,0.00
2019-02-08T05:02:57.397Z,0.00
2019-02-08T05:04:50.117Z,0.00
2019-02-08T05:05:49.933Z,0.00
2019-02-08T05:07:43.590Z,0.00
2019-02-08T05:08:43.424Z,0.00
2019-02-08T05:10:37.009Z,0.00
2019-02-08T05:11:36.890Z,0.00
2019-02-08T05:12:36.702Z,0.00
2019-02-08T05:13:36.688Z,0.00
2019-02-08T05:14:36.422Z,0.00
2019-02-08T05:15:37.370Z,0.00
2019-02-08T05:16:36.148Z,0.00
2019-02-08T05:17:36.334Z,0.00
2019-02-08T05:18:36.249Z,0.00
2019-02-08T05:19:35.742Z,0.00
2019-02-08T05:20:35.626Z,0.00
2019-02-08T05:21:35.558Z,0.00
2019-02-08T05:22:35.346Z,0.00
2019-02-08T05:23:35.244Z,0.00
2019-02-08T05:24:35.159Z,0.00
2019-02-08T05:25:35.013Z,0.00
2019-02-08T05:26:34.797Z,0.00
2019-02-08T05:27:34.665Z,0.00
2019-02-08T05:28:34.524Z,0.00
2019-02-08T05:29:34.391Z,0.00
2019-02-08T05:30:34.270Z,0.00
2019-02-08T05:31:34.128Z,0.00
2019-02-08T05:32:33.986Z,0.00
2019-02-08T05:33:33.856Z,0.00
2019-02-08T05:34:33.729Z,0.00
2019-02-08T05:35:33.738Z,0.00
2019-02-08T05:36:33.448Z,0.00
2019-02-08T05:37:33.315Z,0.00
2019-02-08T05:38:33.183Z,0.00
2019-02-08T05:39:33.046Z,0.00
2019-02-08T05:40:32.911Z,0.00
2019-02-08T05:41:32.778Z,0.00
2019-02-08T05:42:32.652Z,0.00
2019-02-08T05:43:32.506Z,0.00
2019-02-08T05:44:32.397Z,0.00
2019-02-08T05:45:32.237Z,0.00
2019-02-08T05:46:32.144Z,0.00
2019-02-08T05:47:31.965Z,0.00
2019-02-08T05:48:31.830Z,0.00
2019-02-08T05:49:31.698Z,0.00
2019-02-08T05:50:31.558Z,0.00
2019-02-08T05:51:31.423Z,0.00
2019-02-08T05:52:31.286Z,0.00
2019-02-08T05:53:31.152Z,0.00
2019-02-08T05:54:31.014Z,0.00
2019-02-08T05:55:30.894Z,0.00
2019-02-08T05:56:30.744Z,0.00
2019-02-08T05:57:30.610Z,0.00
2019-02-08T05:58:30.473Z,0.00
2019-02-08T05:59:30.338Z,0.00
2019-02-08T06:00:30.202Z,0.00
2019-02-08T06:01:30.065Z,0.00
2019-02-08T06:02:29.943Z,0.00
2019-02-08T06:03:29.794Z,0.00
2019-02-08T06:04:29.658Z,0.00
2019-02-08T06:05:29.521Z,0.00
2019-02-08T06:06:29.393Z,0.00
2019-02-08T06:07:29.248Z,0.00
2019-02-08T06:08:29.112Z,0.00
2019-02-08T06:09:28.976Z,0.00
2019-02-08T06:10:28.840Z,0.00
2019-02-08T06:11:28.706Z,0.00
2019-02-08T06:12:28.569Z,0.00
2019-02-08T06:13:28.433Z,0.00
2019-02-08T06:14:28.296Z,4.00
2019-02-08T06:15:28.163Z,4.00
2019-02-08T06:16:28.025Z,4.00
2019-02-08T06:17:27.890Z,4.00
2019-02-08T06:18:27.752Z,4.00
2019-02-08T06:19:27.615Z,8.00
2019-02-08T06:20:27.481Z,4.00
2019-02-08T06:21:27.345Z,8.00
2019-02-08T06:22:27.209Z,8.00
2019-02-08T06:23:27.101Z,12.00
2019-02-08T06:24:26.937Z,12.00
2019-02-08T06:25:26.798Z,12.00
2019-02-08T06:26:26.660Z,16.00
2019-02-08T06:27:26.524Z,16.00
2019-02-08T06:28:26.390Z,20.00
2019-02-08T06:29:26.255Z,24.00
2019-02-08T06:30:26.115Z,28.00
2019-02-08T06:31:25.979Z,32.00
2019-02-08T06:32:25.844Z,36.00
2019-02-08T06:33:25.707Z,44.00
2019-02-08T06:34:25.569Z,48.00
2019-02-08T06:35:25.438Z,56.00
2019-02-08T06:36:25.299Z,64.00
2019-02-08T06:37:25.161Z,68.00
2019-02-08T06:38:25.025Z,76.00
2019-02-08T06:39:24.910Z,84.00
2019-02-08T06:40:24.751Z,92.00
2019-02-08T06:41:24.618Z,100.00
2019-02-08T06:42:24.480Z,112.00
2019-02-08T06:43:24.344Z,120.00
2019-02-08T06:44:24.232Z,124.00
2019-02-08T06:45:24.083Z,132.00
2019-02-08T06:46:23.935Z,144.00
2019-02-08T06:47:23.800Z,148.00
2019-02-08T06:48:23.662Z,160.00
2019-02-08T06:49:23.525Z,168.00
2019-02-08T06:50:23.390Z,176.00
2019-02-08T06:51:23.252Z,184.00
2019-02-08T06:52:23.116Z,196.00
2019-02-08T06:53:22.982Z,204.00
2019-02-08T06:54:22.843Z,216.00
2019-02-08T06:55:22.717Z,228.00
2019-02-08T06:56:22.571Z,236.00
2019-02-08T06:57:22.435Z,248.00
2019-02-08T06:58:22.299Z,256.00
2019-02-08T06:59:22.166Z,260.00
2019-02-08T07:00:22.027Z,272.00
2019-02-08T07:01:21.890Z,276.00
2019-02-08T07:02:21.753Z,284.00
2019-02-08T07:03:21.619Z,296.00
2019-02-08T07:04:21.597Z,304.00
2019-02-08T07:05:21.344Z,308.00
2019-02-08T07:06:21.211Z,320.00
2019-02-08T07:07:21.072Z,324.00
2019-02-08T07:08:20.936Z,336.00
2019-02-08T07:09:20.799Z,340.00
2019-02-08T07:10:20.666Z,348.00
2019-02-08T07:11:20.527Z,356.00
2019-02-08T07:12:20.392Z,360.00
2019-02-08T07:13:20.255Z,364.00
2019-02-08T07:14:20.121Z,364.00
2019-02-08T07:15:19.983Z,360.00
2019-02-08T07:16:19.846Z,368.00
2019-02-08T07:17:19.708Z,380.00
2019-02-08T07:18:19.573Z,380.00
2019-02-08T07:19:19.438Z,384.00
2019-02-08T07:20:19.304Z,388.00
2019-02-08T07:21:19.172Z,400.00
2019-02-08T07:22:19.027Z,404.00
2019-02-08T07:23:18.891Z,408.00
2019-02-08T07:24:18.755Z,412.00
2019-02-08T07:25:18.981Z,416.00
2019-02-08T07:26:18.481Z,416.00
2019-02-08T07:27:18.346Z,420.00
2019-02-08T07:28:18.209Z,424.00
2019-02-08T07:29:18.072Z,428.00
2019-02-08T07:30:17.939Z,432.00
2019-02-08T07:31:17.798Z,436.00
2019-02-08T07:32:17.663Z,440.00
2019-02-08T07:33:17.527Z,444.00
2019-02-08T07:34:17.389Z,448.00
2019-02-08T07:35:17.253Z,456.00
2019-02-08T07:36:17.174Z,460.00
2019-02-08T07:37:16.996Z,464.00
2019-02-08T07:38:16.844Z,472.00
2019-02-08T07:39:16.712Z,472.00
2019-02-08T07:40:16.572Z,476.00
2019-02-08T07:41:16.434Z,484.00
2019-02-08T07:42:16.299Z,488.00
2019-02-08T07:43:16.169Z,492.00
2019-02-08T07:44:16.030Z,496.00
2019-02-08T07:45:15.890Z,504.00
2019-02-08T07:46:15.759Z,508.00
2019-02-08T07:47:15.620Z,508.00
2019-02-08T07:48:15.482Z,512.00
2019-02-08T07:49:15.343Z,516.00
2019-02-08T07:50:15.208Z,520.00
2019-02-08T07:51:15.071Z,524.00
2019-02-08T07:52:14.936Z,528.00
2019-02-08T07:53:14.798Z,532.00
2019-02-08T07:54:14.668Z,540.00
2019-02-08T07:55:14.527Z,548.00
2019-02-08T07:56:14.390Z,552.00
2019-02-08T07:57:14.256Z,560.00
2019-02-08T07:58:14.118Z,560.00
2019-02-08T07:59:13.981Z,572.00
2019-02-08T08:00:13.843Z,580.00
2019-02-08T08:01:13.708Z,588.00
2019-02-08T08:02:14.427Z,596.00
2019-02-08T08:03:13.434Z,604.00
2019-02-08T08:04:13.300Z,608.00
2019-02-08T08:05:13.160Z,616.00
2019-02-08T08:06:13.024Z,620.00
2019-02-08T08:07:12.889Z,628.00
2019-02-08T08:08:12.757Z,624.00
2019-02-08T08:09:12.619Z,624.00
2019-02-08T08:10:12.481Z,628.00
2019-02-08T08:11:12.348Z,636.00
2019-02-08T08:12:12.210Z,644.00
2019-02-08T08:13:12.075Z,656.00
2019-02-08T08:14:11.937Z,672.00
2019-02-08T08:15:11.800Z,680.00
2019-02-08T08:16:11.664Z,692.00
2019-02-08T08:17:11.526Z,700.00
2019-02-08T08:18:11.391Z,716.00
2019-02-08T08:19:11.255Z,740.00
2019-02-08T08:20:11.119Z,776.00
2019-02-08T08:21:10.983Z,828.00
2019-02-08T08:22:10.848Z,924.00
2019-02-08T08:23:10.714Z,984.00
2019-02-08T08:24:10.577Z,1200.00
2019-02-08T08:25:10.439Z,1456.00
2019-02-08T08:26:10.303Z,1616.00
2019-02-08T08:27:10.168Z,1716.00
2019-02-08T08:28:10.032Z,1740.00
2019-02-08T08:29:09.896Z,1744.00
2019-02-08T08:30:09.761Z,1760.00
2019-02-08T08:31:09.628Z,1712.00
2019-02-08T08:32:09.491Z,1660.00
2019-02-08T08:33:09.358Z,1728.00
2019-02-08T08:34:09.219Z,1872.00
2019-02-08T08:35:09.086Z,2008.00
2019-02-08T08:36:08.953Z,2100.00
2019-02-08T08:37:08.816Z,2168.00
2019-02-08T08:38:08.680Z,2340.00
2019-02-08T08:39:08.548Z,2404.00
2019-02-08T08:40:08.414Z,2420.00
2019-02-08T08:41:08.283Z,2340.00
2019-02-08T08:42:08.143Z,2336.00
2019-02-08T08:43:08.011Z,2332.00
2019-02-08T08:44:07.879Z,2388.00
2019-02-08T08:45:07.744Z,2396.00
2019-02-08T08:46:07.610Z,2400.00
2019-02-08T08:47:07.477Z,2440.00
2019-02-08T08:48:07.345Z,2468.00
2019-02-08T08:49:07.211Z,2508.00
2019-02-08T08:50:07.077Z,2572.00
2019-02-08T08:51:06.947Z,2564.00
2019-02-08T08:52:06.815Z,2572.00
2019-02-08T08:53:06.698Z,2592.00
2019-02-08T08:54:06.548Z,2556.00
2019-02-08T08:55:06.418Z,2552.00
2019-02-08T08:56:06.284Z,2568.00
2019-02-08T08:57:06.154Z,2672.00
2019-02-08T08:58:06.021Z,2680.00
2019-02-08T08:59:05.891Z,2668.00
2019-02-08T09:00:05.757Z,2604.00
2019-02-08T09:01:05.643Z,2576.00
2019-02-08T09:02:05.493Z,2552.00
2019-02-08T09:03:05.367Z,2616.00
2019-02-08T09:04:05.232Z,2660.00
2019-02-08T09:05:05.101Z,2700.00
2019-02-08T09:06:08.582Z,2624.00
2019-02-08T09:07:04.842Z,2612.00
2019-02-08T09:08:04.707Z,2600.00
2019-02-08T09:09:04.576Z,2624.00
2019-02-08T09:10:04.446Z,2568.00
2019-02-08T09:11:04.313Z,2604.00
2019-02-08T09:12:04.181Z,2640.00
2019-02-08T09:13:04.050Z,2528.00
2019-02-08T09:14:03.920Z,2488.00
2019-02-08T09:15:03.790Z,2532.00
2019-02-08T09:16:03.662Z,2584.00
2019-02-08T09:17:03.525Z,2700.00
2019-02-08T09:18:03.395Z,2720.00
2019-02-08T09:19:03.278Z,2740.00
2019-02-08T09:20:03.137Z,2800.00
2019-02-08T09:21:03.005Z,2768.00
2019-02-08T09:22:02.873Z,2688.00
2019-02-08T09:23:02.745Z,2708.00
2019-02-08T09:24:02.619Z,2712.00
2019-02-08T09:25:02.483Z,2724.00
2019-02-08T09:26:02.356Z,2724.00
2019-02-08T09:27:02.224Z,2672.00
2019-02-08T09:28:02.104Z,2656.00
2019-02-08T09:29:01.964Z,2536.00
2019-02-08T09:30:01.833Z,2444.00
2019-02-08T09:31:01.701Z,2588.00
2019-02-08T09:32:03.140Z,2568.00
2019-02-08T09:33:01.444Z,2616.00
2019-02-08T09:34:01.346Z,2600.00
2019-02-08T09:35:01.181Z,2568.00
2019-02-08T09:36:01.074Z,2580.00
2019-02-08T09:37:00.918Z,2584.00
2019-02-08T09:38:00.790Z,2332.00
2019-02-08T09:39:00.662Z,2128.00
2019-02-08T09:40:00.528Z,2448.00
2019-02-08T09:41:00.397Z,2520.00
2019-02-08T09:42:00.267Z,2512.00
2019-02-08T09:43:00.140Z,2572.00
2019-02-08T09:44:00.006Z,2680.00
2019-02-08T09:44:59.875Z,2712.00
2019-02-08T09:45:59.744Z,2736.00
2019-02-08T09:46:59.615Z,2724.00
2019-02-08T09:47:59.483Z,2696.00
2019-02-08T09:48:59.353Z,2676.00
2019-02-08T09:49:59.222Z,2660.00
2019-02-08T09:50:59.091Z,2668.00
2019-02-08T09:51:58.962Z,2672.00
2019-02-08T09:52:58.833Z,2612.00
2019-02-08T09:53:58.701Z,2620.00
2019-02-08T09:54:58.572Z,2596.00
2019-02-08T09:55:59.945Z,2628.00
2019-02-08T09:56:58.306Z,2676.00
2019-02-08T09:57:58.177Z,2724.00
2019-02-08T09:58:58.048Z,2568.00
2019-02-08T09:59:57.952Z,2756.00
2019-02-08T10:00:57.787Z,2760.00
2019-02-08T10:01:57.672Z,2892.00
2019-02-08T10:02:57.552Z,2960.00
2019-02-08T10:03:57.391Z,3068.00
2019-02-08T10:04:57.260Z,3096.00
2019-02-08T10:05:57.130Z,3108.00
2019-02-08T10:06:56.999Z,3136.00
2019-02-08T10:07:56.870Z,3152.00
2019-02-08T10:08:56.740Z,3172.00
2019-02-08T10:09:56.605Z,3184.00
2019-02-08T10:10:56.477Z,3208.00
2019-02-08T10:11:56.345Z,3200.00
2019-02-08T10:12:56.212Z,3216.00
2019-02-08T10:13:56.083Z,3216.00
2019-02-08T10:14:55.952Z,3260.00
2019-02-08T10:15:55.821Z,3288.00
2019-02-08T10:16:55.689Z,3312.00
2019-02-08T10:17:55.557Z,3316.00
2019-02-08T10:18:55.431Z,3324.00
2019-02-08T10:19:55.297Z,3356.00
2019-02-08T10:20:55.167Z,3400.00
2019-02-08T10:21:55.035Z,3452.00
2019-02-08T10:22:54.908Z,3532.00
2019-02-08T10:23:54.776Z,3588.00
2019-02-08T10:24:54.645Z,3664.00
2019-02-08T10:25:54.515Z,3688.00
2019-02-08T10:26:54.388Z,3704.00
2019-02-08T10:27:54.257Z,3716.00
2019-02-08T10:28:54.127Z,3676.00
2019-02-08T10:29:53.994Z,3660.00
2019-02-08T10:30:53.870Z,3728.00
2019-02-08T10:31:53.741Z,3680.00
2019-02-08T10:32:53.607Z,3688.00
2019-02-08T10:33:53.476Z,3684.00
2019-02-08T10:34:53.347Z,3748.00
2019-02-08T10:35:53.219Z,3796.00
2019-02-08T10:36:53.092Z,3820.00
2019-02-08T10:37:52.959Z,3840.00
2019-02-08T10:38:52.829Z,3860.00
2019-02-08T10:39:52.702Z,3904.00
2019-02-08T10:40:52.570Z,3888.00
2019-02-08T10:41:52.441Z,3928.00
2019-02-08T10:42:52.314Z,3952.00
2019-02-08T10:43:52.183Z,3928.00
2019-02-08T10:44:52.054Z,3880.00
2019-02-08T10:45:51.925Z,3912.00
2019-02-08T10:46:51.796Z,3828.00
2019-02-08T10:47:51.670Z,3884.00
2019-02-08T10:48:51.543Z,3872.00
2019-02-08T10:49:51.414Z,3768.00
2019-02-08T10:50:51.283Z,3576.00
2019-02-08T10:51:51.154Z,3476.00
2019-02-08T10:52:51.026Z,3692.00
2019-02-08T10:53:53.284Z,3716.00
2019-02-08T10:54:50.769Z,3772.00
2019-02-08T10:55:50.642Z,3824.00
2019-02-08T10:56:50.511Z,3872.00
2019-02-08T10:57:50.384Z,3896.00
2019-02-08T10:58:50.255Z,3824.00
2019-02-08T10:59:50.132Z,3632.00
2019-02-08T11:00:50.000Z,3572.00
2019-02-08T11:01:49.871Z,3440.00
2019-02-08T11:02:49.745Z,3584.00
2019-02-08T11:03:49.615Z,3688.00
2019-02-08T11:04:49.488Z,3640.00
2019-02-08T11:05:49.361Z,3768.00
2019-02-08T11:06:49.234Z,3748.00
2019-02-08T11:07:49.104Z,3736.00
2019-02-08T11:08:48.976Z,3692.00
2019-02-08T11:09:48.850Z,3644.00
2019-02-08T11:10:48.720Z,3584.00
2019-02-08T11:11:48.594Z,3632.00
2019-02-08T11:12:48.465Z,3604.00
2019-02-08T11:13:48.338Z,3592.00
2019-02-08T11:14:48.211Z,3628.00
2019-02-08T11:15:48.082Z,3660.00
2019-02-08T11:16:47.993Z,3584.00
2019-02-08T11:17:47.827Z,3648.00
2019-02-08T11:18:47.702Z,3540.00
2019-02-08T11:19:47.572Z,3736.00
2019-02-08T11:20:47.442Z,3804.00
2019-02-08T11:21:47.315Z,3820.00
2019-02-08T11:22:47.190Z,3784.00
2019-02-08T11:23:47.061Z,3680.00
2019-02-08T11:24:46.934Z,3592.00
2019-02-08T11:25:46.805Z,3420.00
2019-02-08T11:26:46.678Z,3252.00
2019-02-08T11:27:46.552Z,3280.00
2019-02-08T11:28:46.422Z,3372.00
2019-02-08T11:29:46.295Z,3408.00
2019-02-08T11:30:46.165Z,3508.00
2019-02-08T11:31:46.038Z,3572.00
2019-02-08T11:32:45.910Z,3696.00
2019-02-08T11:33:45.785Z,3752.00
2019-02-08T11:34:45.653Z,3736.00
2019-02-08T11:35:45.526Z,3624.00
2019-02-08T11:36:45.401Z,3588.00
2019-02-08T11:37:45.269Z,3520.00
2019-02-08T11:38:45.151Z,3500.00
2019-02-08T11:39:45.018Z,2956.00
2019-02-08T11:40:44.885Z,3324.00
2019-02-08T11:41:44.758Z,3316.00
2019-02-08T11:42:44.629Z,3292.00
2019-02-08T11:43:44.502Z,3220.00
2019-02-08T11:44:44.374Z,3136.00
2019-02-08T11:45:44.246Z,3232.00
2019-02-08T11:46:44.122Z,3056.00
2019-02-08T11:47:43.998Z,3108.00
2019-02-08T11:48:43.864Z,3104.00
2019-02-08T11:49:43.735Z,3232.00
2019-02-08T11:50:43.609Z,3224.00
2019-02-08T11:51:43.478Z,3324.00
2019-02-08T11:52:43.352Z,3324.00
2019-02-08T11:53:43.222Z,3248.00
2019-02-08T11:54:43.111Z,3188.00
2019-02-08T11:55:42.970Z,3176.00
2019-02-08T11:56:42.840Z,3308.00
2019-02-08T11:57:42.712Z,3244.00
2019-02-08T11:58:42.581Z,3240.00
2019-02-08T11:59:42.459Z,3252.00
2019-02-08T12:00:42.332Z,3292.00
2019-02-08T12:01:42.196Z,3268.00
2019-02-08T12:02:42.073Z,3316.00
2019-02-08T12:03:41.948Z,3308.00
2019-02-08T12:04:41.822Z,3280.00
2019-02-08T12:05:41.686Z,3264.00
2019-02-08T12:06:41.559Z,3296.00
2019-02-08T12:07:41.432Z,2832.00
2019-02-08T12:08:41.301Z,3272.00
2019-02-08T12:09:41.175Z,3236.00
2019-02-08T12:10:41.050Z,3236.00
2019-02-08T12:11:40.919Z,3228.00
2019-02-08T12:12:40.795Z,3188.00
2019-02-08T12:13:40.660Z,3184.00
2019-02-08T12:14:40.534Z,3160.00
2019-02-08T12:15:40.406Z,3112.00
2019-02-08T12:16:40.276Z,3084.00
2019-02-08T12:17:40.152Z,3048.00
2019-02-08T12:18:40.024Z,3072.00
2019-02-08T12:19:39.893Z,3072.00
2019-02-08T12:20:39.764Z,3048.00
2019-02-08T12:21:39.638Z,3052.00
2019-02-08T12:22:39.511Z,3084.00
2019-02-08T12:23:39.385Z,3096.00
2019-02-08T12:24:39.256Z,3048.00
2019-02-08T12:25:39.126Z,3088.00
2019-02-08T12:26:38.999Z,3144.00
2019-02-08T12:27:38.875Z,3152.00
2019-02-08T12:28:38.743Z,3140.00
2019-02-08T12:29:38.614Z,3100.00
2019-02-08T12:30:38.488Z,2992.00
2019-02-08T12:31:38.361Z,3020.00
2019-02-08T12:32:38.237Z,3056.00
2019-02-08T12:33:38.105Z,3080.00
2019-02-08T12:34:37.977Z,3072.00
2019-02-08T12:35:37.849Z,3084.00
2019-02-08T12:36:37.719Z,3108.00
2019-02-08T12:37:37.594Z,3104.00
2019-02-08T12:38:37.468Z,3116.00
2019-02-08T12:39:37.339Z,3132.00
2019-02-08T12:40:37.211Z,3144.00
2019-02-08T12:41:37.083Z,3216.00
2019-02-08T12:42:36.955Z,3256.00
2019-02-08T12:43:36.828Z,3312.00
2019-02-08T12:44:36.701Z,3240.00
2019-02-08T12:45:36.575Z,3344.00
2019-02-08T12:46:36.447Z,3308.00
2019-02-08T12:47:36.321Z,3260.00
2019-02-08T12:48:36.542Z,3232.00
2019-02-08T12:49:36.065Z,3224.00
2019-02-08T12:50:35.941Z,3272.00
2019-02-08T12:51:35.810Z,3248.00
2019-02-08T12:52:35.683Z,3296.00
2019-02-08T12:53:35.554Z,3272.00
2019-02-08T12:54:35.429Z,3248.00
2019-02-08T12:55:35.302Z,3308.00
2019-02-08T12:56:35.174Z,3380.00
2019-02-08T12:57:35.045Z,3468.00
2019-02-08T12:58:34.922Z,3568.00
2019-02-08T12:59:34.792Z,3632.00
2019-02-08T13:00:34.663Z,3648.00
2019-02-08T13:01:37.861Z,3692.00
2019-02-08T13:02:34.410Z,3808.00
2019-02-08T13:03:34.284Z,3860.00
2019-02-08T13:04:34.156Z,3720.00
2019-02-08T13:05:34.028Z,3804.00
2019-02-08T13:06:33.901Z,4188.00
2019-02-08T13:07:33.776Z,4004.00
2019-02-08T13:08:33.650Z,3760.00
2019-02-08T13:09:33.522Z,4128.00
2019-02-08T13:10:33.393Z,4136.00
2019-02-08T13:11:33.269Z,4308.00
2019-02-08T13:12:33.137Z,4284.00
2019-02-08T13:13:33.042Z,4288.00
2019-02-08T13:14:32.886Z,4476.00
2019-02-08T13:15:32.759Z,4492.00
2019-02-08T13:16:32.631Z,4416.00
2019-02-08T13:17:32.504Z,4380.00
2019-02-08T13:18:32.385Z,4216.00
2019-02-08T13:19:32.252Z,4156.00
2019-02-08T13:20:32.125Z,4024.00
2019-02-08T13:21:32.001Z,3956.00
2019-02-08T13:22:31.874Z,3944.00
2019-02-08T13:23:31.747Z,4240.00
2019-02-08T13:24:31.619Z,4376.00
2019-02-08T13:25:31.494Z,4360.00
2019-02-08T13:26:31.372Z,4300.00
2019-02-08T13:27:31.242Z,4176.00
2019-02-08T13:28:31.114Z,4104.00
2019-02-08T13:29:30.988Z,4176.00
2019-02-08T13:30:30.865Z,4264.00
2019-02-08T13:31:30.737Z,4268.00
2019-02-08T13:32:30.609Z,4272.00
2019-02-08T13:33:30.482Z,4208.00
2019-02-08T13:34:30.356Z,4240.00
2019-02-08T13:35:30.233Z,4132.00
2019-02-08T13:36:30.106Z,4152.00
2019-02-08T13:37:29.978Z,4204.00
2019-02-08T13:38:29.853Z,4152.00
2019-02-08T13:39:29.726Z,4216.00
2019-02-08T13:40:29.602Z,4368.00
2019-02-08T13:41:29.474Z,4484.00
2019-02-08T13:42:29.348Z,4516.00
2019-02-08T13:43:29.224Z,4564.00
2019-02-08T13:44:29.092Z,4560.00
2019-02-08T13:45:28.969Z,4500.00
2019-02-08T13:46:28.846Z,4268.00
2019-02-08T13:47:28.718Z,4092.00
2019-02-08T13:48:28.589Z,4060.00
2019-02-08T13:49:28.464Z,3964.00
2019-02-08T13:50:28.339Z,3892.00
2019-02-08T13:51:28.212Z,3784.00
2019-02-08T13:52:28.081Z,3576.00
2019-02-08T13:53:27.956Z,3712.00
2019-02-08T13:54:27.831Z,3592.00
2019-02-08T13:55:27.704Z,3580.00
2019-02-08T13:56:27.578Z,3472.00
2019-02-08T13:57:27.450Z,3476.00
2019-02-08T13:58:27.327Z,3460.00
2019-02-08T13:59:27.199Z,3488.00
2019-02-08T14:00:27.072Z,3548.00
2019-02-08T14:01:26.948Z,3516.00
2019-02-08T14:02:26.819Z,3616.00
2019-02-08T14:03:26.694Z,3576.00
2019-02-08T14:04:26.565Z,3680.00
2019-02-08T14:05:26.438Z,3604.00
2019-02-08T14:06:26.317Z,3492.00
2019-02-08T14:07:26.187Z,3328.00
2019-02-08T14:08:26.061Z,3552.00
2019-02-08T14:09:25.933Z,3460.00
2019-02-08T14:10:25.810Z,3752.00